createdAt,value
2022-08-19T00:01:28.804Z,99684.84
2022-08-19T00:03:58.192Z,99694.47
2022-08-19T00:06:25.929Z,99695.84
2022-08-19T00:08:53.702Z,99701.59
2022-08-19T00:11:26.361Z,99698.34
2022-08-19T00:13:57.466Z,99694.53
2022-08-19T00:16:27.217Z,99687.97
2022-08-19T00:18:56.270Z,99688.50
2022-08-19T00:21:24.490Z,99680.31
2022-08-19T00:23:52.250Z,99676.75
2022-08-19T00:26:20.135Z,99669.66
2022-08-19T00:28:49.149Z,99671.56
2022-08-19T00:33:45.339Z,99662.28
2022-08-19T00:36:13.546Z,99669.94
2022-08-19T00:38:44.210Z,99665.00
2022-08-19T00:41:15.489Z,99666.41
2022-08-19T00:43:43.469Z,99658.19
2022-08-19T00:46:12.457Z,99659.56
2022-08-19T00:48:40.141Z,99655.19
2022-08-19T00:51:08.088Z,99663.09
2022-08-19T00:53:36.459Z,99654.09
2022-08-19T00:56:07.194Z,99654.91
2022-08-19T00:58:37.037Z,99645.66
2022-08-19T01:01:06.356Z,99646.41
2022-08-19T01:03:56.476Z,99638.25
2022-08-19T01:06:23.283Z,99641.53
2022-08-19T01:08:50.942Z,99638.00
2022-08-19T01:11:18.833Z,99628.41
2022-08-19T01:13:49.838Z,99638.00
2022-08-19T01:16:21.170Z,99635.56
2022-08-19T01:18:50.217Z,99632.00
2022-08-19T01:21:23.956Z,99638.78
2022-08-19T01:23:53.155Z,99640.41
2022-08-19T01:26:23.686Z,99633.88
2022-08-19T01:28:54.312Z,99642.56
2022-08-19T01:31:32.704Z,99634.09
2022-08-19T01:34:02.486Z,99638.50
2022-08-19T01:36:32.577Z,99632.00
2022-08-19T01:39:04.783Z,99626.25
2022-08-19T01:41:32.816Z,99622.16
2022-08-19T01:44:03.828Z,99616.72
2022-08-19T01:46:46.147Z,99633.63
2022-08-19T01:49:14.315Z,99623.78
2022-08-19T01:51:41.975Z,99630.06
2022-08-19T01:54:12.332Z,99628.97
2022-08-19T01:56:40.188Z,99623.50
2022-08-19T01:59:12.846Z,99625.97
2022-08-19T02:01:40.716Z,99632.25
2022-08-19T02:04:08.547Z,99629.50
2022-08-19T02:06:36.940Z,99629.00
2022-08-19T02:09:05.725Z,99632.53
2022-08-19T02:11:37.078Z,99634.72
2022-08-19T02:14:07.622Z,99634.97
2022-08-19T02:16:36.008Z,99630.09
2022-08-19T02:19:04.444Z,99636.69
2022-08-19T02:21:32.706Z,99644.38
2022-08-19T02:24:00.468Z,99655.78
2022-08-19T02:26:28.397Z,99659.38
2022-08-19T02:28:58.057Z,99661.84
2022-08-19T02:31:28.780Z,99659.13
2022-08-19T02:33:57.000Z,99659.66
2022-08-19T02:36:26.130Z,99668.09
2022-08-19T02:38:54.704Z,99661.28
2022-08-19T02:41:27.037Z,99657.50
2022-08-19T02:44:22.884Z,99658.56
2022-08-19T02:46:45.800Z,99656.44
2022-08-19T02:49:13.874Z,99660.50
2022-08-19T02:51:43.674Z,99656.09
2022-08-19T02:54:13.438Z,99655.56
2022-08-19T02:56:43.232Z,99659.91
2022-08-19T02:59:12.582Z,99671.91
2022-08-19T03:01:42.787Z,99664.00
2022-08-19T03:04:14.272Z,99673.25
2022-08-19T03:06:44.081Z,99657.97
2022-08-19T03:09:12.520Z,99655.28
2022-08-19T03:11:40.692Z,99654.19
2022-08-19T03:14:09.835Z,99656.69
2022-08-19T03:16:46.388Z,99654.47
2022-08-19T03:19:16.047Z,99661.06
2022-08-19T03:21:45.819Z,99665.41
2022-08-19T03:24:15.189Z,99674.72
2022-08-19T03:26:44.297Z,99667.31
2022-08-19T03:29:13.274Z,99666.53
2022-08-19T03:31:51.257Z,99667.88
2022-08-19T03:34:27.003Z,99677.97
2022-08-19T03:36:55.334Z,99678.78
2022-08-19T03:39:24.850Z,99674.44
2022-08-19T03:42:31.931Z,99670.84
2022-08-19T03:44:46.633Z,99666.50
2022-08-19T03:47:17.241Z,99673.06
2022-08-19T03:49:47.275Z,99675.53
2022-08-19T03:52:15.118Z,99667.06
2022-08-19T03:54:43.243Z,99663.31
2022-08-19T03:57:11.291Z,99672.81
2022-08-19T03:59:39.883Z,99675.28
2022-08-19T04:02:11.125Z,99671.50
2022-08-19T04:04:39.728Z,99670.38
2022-08-19T04:07:09.272Z,99676.13
2022-08-19T04:09:38.193Z,99672.63
2022-08-19T04:12:07.542Z,99680.50
2022-08-19T04:14:36.560Z,99680.53
2022-08-19T04:17:06.378Z,99679.72
2022-08-19T04:19:35.141Z,99679.44
2022-08-19T04:22:02.865Z,99681.63
2022-08-19T04:24:32.967Z,99685.72
2022-08-19T04:27:01.686Z,99689.25
2022-08-19T04:29:30.995Z,99681.91
2022-08-19T04:31:59.644Z,99680.25
2022-08-19T04:34:30.569Z,99680.00
2022-08-19T04:37:00.507Z,99663.63
2022-08-19T04:39:49.255Z,99672.63
2022-08-19T04:42:35.118Z,99677.53
2022-08-19T04:45:04.195Z,99687.09
2022-08-19T04:47:49.400Z,99689.00
2022-08-19T04:50:21.515Z,99690.88
2022-08-19T04:52:52.082Z,99690.91
2022-08-19T04:55:21.371Z,99695.81
2022-08-19T04:57:49.841Z,99695.78
2022-08-19T05:00:17.697Z,99690.88
2022-08-19T05:02:45.255Z,99699.31
2022-08-19T05:05:13.460Z,99701.50
2022-08-19T05:07:42.026Z,99702.81
2022-08-19T05:10:10.321Z,99698.44
2022-08-19T05:12:39.271Z,99689.41
2022-08-19T05:15:09.321Z,99694.53
2022-08-19T05:17:38.904Z,99692.59
2022-08-19T05:20:27.395Z,99698.03
2022-08-19T05:22:55.320Z,99703.72
2022-08-19T05:25:25.570Z,99694.94
2022-08-19T05:27:54.637Z,99704.69
2022-08-19T05:30:24.430Z,99712.56
2022-08-19T05:33:13.052Z,99707.97
2022-08-19T05:35:42.020Z,99708.41
2022-08-19T05:38:12.087Z,99717.03
2022-08-19T05:40:40.280Z,99718.94
2022-08-19T05:43:10.228Z,99716.72
2022-08-19T05:45:41.298Z,99714.94
2022-08-19T05:48:11.948Z,99715.59
2022-08-19T05:50:40.832Z,99717.47
2022-08-19T05:53:09.823Z,99719.56
2022-08-19T05:55:39.176Z,99714.97
2022-08-19T05:58:08.420Z,99718.97
2022-08-19T06:00:38.821Z,99722.47
2022-08-19T06:03:12.446Z,99729.72
2022-08-19T06:05:42.278Z,99736.50
2022-08-19T06:08:19.330Z,99731.53
2022-08-19T06:10:47.465Z,99734.66
2022-08-19T06:13:15.123Z,99740.97
2022-08-19T06:15:45.200Z,99737.06
2022-08-19T06:18:12.916Z,99744.53
2022-08-19T06:20:55.423Z,99742.94
2022-08-19T06:23:24.289Z,99747.19
2022-08-19T06:25:52.159Z,99746.16
2022-08-19T06:28:19.996Z,99743.03
2022-08-19T06:30:49.211Z,99740.00
2022-08-19T06:33:16.866Z,99743.59
2022-08-19T06:35:46.385Z,99748.72
2022-08-19T06:38:17.067Z,99752.78
2022-08-19T06:43:12.317Z,99769.44
2022-08-19T06:45:41.925Z,99773.59
2022-08-19T06:48:11.615Z,99772.53
2022-08-19T06:50:41.020Z,99767.03
2022-08-19T06:53:08.903Z,99760.50
2022-08-19T06:55:36.611Z,99774.31
2022-08-19T06:58:05.060Z,99787.09
2022-08-19T07:00:34.946Z,99777.81
2022-08-19T07:03:06.398Z,99776.38
2022-08-19T07:05:45.941Z,99777.16
2022-08-19T07:08:14.367Z,99764.16
2022-08-19T07:10:45.798Z,99772.53
2022-08-19T07:13:13.519Z,99766.19
2022-08-19T07:15:42.232Z,99780.34
2022-08-19T07:18:11.972Z,99779.75
2022-08-19T07:20:42.629Z,99776.75
2022-08-19T07:23:15.928Z,99771.63
2022-08-19T07:25:44.822Z,99783.41
2022-08-19T07:28:24.787Z,99774.59
2022-08-19T07:30:53.207Z,99779.84
2022-08-19T07:33:21.188Z,99779.84
2022-08-19T07:35:50.861Z,99778.88
2022-08-19T07:38:18.952Z,99769.25
2022-08-19T07:40:47.685Z,99778.56
2022-08-19T07:43:17.347Z,99779.06
2022-08-19T07:45:46.133Z,99778.59
2022-08-19T07:48:13.904Z,99778.88
2022-08-19T07:50:41.661Z,99773.19
2022-08-19T07:53:10.795Z,99776.13
2022-08-19T07:55:42.262Z,99774.28
2022-08-19T07:58:12.124Z,99784.53
2022-08-19T08:00:39.884Z,99777.91
2022-08-19T08:03:07.715Z,99783.03
2022-08-19T08:05:53.158Z,99784.44
2022-08-19T08:08:44.216Z,99789.06
2022-08-19T08:11:20.057Z,99782.81
2022-08-19T08:14:01.309Z,99768.94
2022-08-19T08:16:33.284Z,99769.41
2022-08-19T08:19:02.823Z,99782.88
2022-08-19T08:21:35.695Z,99787.53
2022-08-19T08:24:05.530Z,99782.06
2022-08-19T08:26:33.664Z,99778.78
2022-08-19T08:29:02.398Z,99783.19
2022-08-19T08:31:40.719Z,99781.94
2022-08-19T08:34:09.479Z,99788.44
2022-08-19T08:36:41.703Z,99789.13
2022-08-19T08:39:11.373Z,99786.59
2022-08-19T08:41:47.332Z,99790.97
2022-08-19T08:44:21.884Z,99786.38
2022-08-19T08:46:53.197Z,99780.34
2022-08-19T08:49:30.354Z,99783.34
2022-08-19T08:52:04.065Z,99785.09
2022-08-19T08:54:39.184Z,99788.56
2022-08-19T08:57:12.728Z,99793.94
2022-08-19T08:59:43.632Z,99788.47
2022-08-19T09:02:11.501Z,99786.22
2022-08-19T09:04:40.248Z,99780.84
2022-08-19T09:07:36.032Z,99786.84
2022-08-19T09:10:15.944Z,99785.56
2022-08-19T09:12:54.895Z,99787.47
2022-08-19T09:15:33.714Z,99785.06
2022-08-19T09:18:07.077Z,99779.50
2022-08-19T09:20:35.067Z,99776.63
2022-08-19T09:23:02.922Z,99769.22
2022-08-19T09:25:35.296Z,99769.50
2022-08-19T09:28:05.638Z,99774.84
2022-08-19T09:30:43.520Z,99761.47
2022-08-19T09:33:11.406Z,99767.31
2022-08-19T09:35:49.807Z,99774.75
2022-08-19T09:38:21.467Z,99776.53
2022-08-19T09:40:51.070Z,99782.78
2022-08-19T09:43:32.980Z,99774.09
2022-08-19T09:46:02.717Z,99771.41
2022-08-19T09:48:30.809Z,99773.75
2022-08-19T09:51:06.157Z,99778.66
2022-08-19T09:53:34.177Z,99781.97
2022-08-19T09:56:04.050Z,99774.84
2022-08-19T09:58:32.139Z,99773.25
2022-08-19T10:01:02.411Z,99774.06
2022-08-19T10:03:32.179Z,99775.44
2022-08-19T10:06:02.231Z,99765.66
2022-08-19T10:08:33.944Z,99783.47
2022-08-19T10:11:27.895Z,99772.63
2022-08-19T10:13:52.415Z,99777.88
2022-08-19T10:16:26.130Z,99774.41
2022-08-19T10:18:58.830Z,99781.63
2022-08-19T10:21:29.109Z,99789.25
2022-08-19T10:24:04.801Z,99782.72
2022-08-19T10:26:38.087Z,99780.81
2022-08-19T10:29:09.261Z,99772.16
2022-08-19T10:32:01.216Z,99759.09
2022-08-19T10:34:28.186Z,99762.03
2022-08-19T10:37:00.498Z,99759.25
2022-08-19T10:39:32.677Z,99756.00
2022-08-19T10:42:13.881Z,99752.72
2022-08-19T10:44:42.515Z,99753.81
2022-08-19T10:47:17.546Z,99746.53
2022-08-19T10:50:11.951Z,99749.50
2022-08-19T10:52:40.275Z,99750.97
2022-08-19T10:55:36.904Z,99754.03
2022-08-19T10:58:06.209Z,99750.69
2022-08-19T11:00:34.606Z,99742.03
2022-08-19T11:03:02.365Z,99737.44
2022-08-19T11:05:30.336Z,99743.72
2022-08-19T11:08:23.866Z,99742.19
2022-08-19T11:10:54.514Z,99731.47
2022-08-19T11:13:24.304Z,99728.88
2022-08-19T11:16:00.890Z,99724.84
2022-08-19T11:18:31.577Z,99724.16
2022-08-19T11:21:07.970Z,99713.19
2022-08-19T11:23:35.816Z,99709.13
2022-08-19T11:26:03.662Z,99694.28
2022-08-19T11:28:32.665Z,99701.25
2022-08-19T11:31:00.516Z,99686.41
2022-08-19T11:33:28.414Z,99689.38
2022-08-19T11:35:56.342Z,99679.16
2022-08-19T11:38:24.008Z,99681.38
2022-08-19T11:40:57.349Z,99693.72
2022-08-19T11:43:25.173Z,99690.97
2022-08-19T11:45:54.363Z,99688.94
2022-08-19T11:48:23.378Z,99693.59
2022-08-19T11:50:51.196Z,99694.06
2022-08-19T11:53:20.253Z,99684.00
2022-08-19T11:55:49.075Z,99690.41
2022-08-19T11:58:19.334Z,99689.75
2022-08-19T12:00:47.426Z,99674.16
2022-08-19T12:03:16.633Z,99682.50
2022-08-19T12:05:44.328Z,99678.84
2022-08-19T12:08:13.555Z,99686.81
2022-08-19T12:10:43.080Z,99694.13
2022-08-19T12:13:11.305Z,99680.97
2022-08-19T12:15:41.329Z,99682.38
2022-08-19T12:18:10.287Z,99675.63
2022-08-19T12:20:41.777Z,99675.94
2022-08-19T12:23:11.170Z,99672.56
2022-08-19T12:25:39.409Z,99676.69
2022-08-19T12:28:07.016Z,99673.63
2022-08-19T12:30:34.637Z,99672.19
2022-08-19T12:33:02.274Z,99665.97
2022-08-19T12:35:31.440Z,99664.44
2022-08-19T12:38:00.913Z,99659.72
2022-08-19T12:40:28.947Z,99658.47
2022-08-19T12:42:56.653Z,99659.94
2022-08-19T12:45:24.499Z,99664.72
2022-08-19T12:47:54.783Z,99661.94
2022-08-19T12:50:23.364Z,99648.16
2022-08-19T12:52:51.175Z,99652.75
2022-08-19T12:55:20.461Z,99660.03
2022-08-19T12:57:49.621Z,99652.38
2022-08-19T13:00:21.972Z,99654.09
2022-08-19T13:02:52.249Z,99660.84
2022-08-19T13:05:24.141Z,99656.38
2022-08-19T13:07:54.178Z,99659.75
2022-08-19T13:10:25.636Z,99657.88
2022-08-19T13:12:54.074Z,99658.66
2022-08-19T13:15:24.537Z,99657.13
2022-08-19T13:17:54.742Z,99661.03
2022-08-19T13:20:23.532Z,99666.69
2022-08-19T13:22:51.725Z,99660.50
2022-08-19T13:25:20.866Z,99670.91
2022-08-19T13:27:51.688Z,99677.69
2022-08-19T13:30:39.187Z,99674.94
2022-08-19T13:33:15.918Z,99669.69
2022-08-19T13:35:46.609Z,99676.47
2022-08-19T13:38:15.535Z,99673.13
2022-08-19T13:40:43.383Z,99677.69
2022-08-19T13:43:17.602Z,99675.06
2022-08-19T13:45:55.024Z,99664.94
2022-08-19T13:48:23.409Z,99676.19
2022-08-19T13:50:51.248Z,99679.47
2022-08-19T13:53:19.675Z,99678.25
2022-08-19T13:55:47.564Z,99671.44
2022-08-19T13:58:16.861Z,99670.63
2022-08-19T14:00:47.957Z,99674.38
2022-08-19T14:03:16.382Z,99683.47
2022-08-19T14:05:44.183Z,99677.47
2022-08-19T14:08:13.192Z,99675.50
2022-08-19T14:10:43.631Z,99691.09
2022-08-19T14:13:11.228Z,99695.53
2022-08-19T14:15:40.645Z,99694.66
2022-08-19T14:18:08.443Z,99692.97
2022-08-19T14:20:36.555Z,99697.44
2022-08-19T14:23:06.033Z,99690.84
2022-08-19T14:25:35.619Z,99692.38
2022-08-19T14:28:03.869Z,99692.91
2022-08-19T14:30:34.153Z,99696.69
2022-08-19T14:33:04.475Z,99683.66
2022-08-19T14:35:35.544Z,99670.78
2022-08-19T14:38:04.504Z,99658.97
2022-08-19T14:40:32.787Z,99653.78
2022-08-19T14:43:05.729Z,99648.75
2022-08-19T14:45:36.530Z,99634.88
2022-08-19T14:48:06.209Z,99629.16
2022-08-19T14:50:34.485Z,99627.03
2022-08-19T14:53:09.119Z,99633.31
2022-08-19T14:55:43.767Z,99630.25
2022-08-19T14:58:29.282Z,99628.44
2022-08-19T15:01:00.377Z,99629.13
2022-08-19T15:03:30.752Z,99621.00
2022-08-19T15:05:58.931Z,99616.19
2022-08-19T15:08:27.881Z,99615.84
2022-08-19T15:10:55.762Z,99619.00
2022-08-19T15:13:23.760Z,99611.28
2022-08-19T15:15:52.552Z,99620.81
2022-08-19T15:18:21.359Z,99619.53
2022-08-19T15:20:50.833Z,99622.63
2022-08-19T15:23:21.263Z,99627.34
2022-08-19T15:25:49.210Z,99622.78
2022-08-19T15:28:17.369Z,99625.16
2022-08-19T15:30:45.363Z,99631.81
2022-08-19T15:33:15.098Z,99634.16
2022-08-19T15:35:43.108Z,99634.16
2022-08-19T15:38:13.811Z,99634.63
2022-08-19T15:40:42.497Z,99630.41
2022-08-19T15:43:10.204Z,99636.72
2022-08-19T15:45:40.187Z,99639.06
2022-08-19T15:48:07.884Z,99630.59
2022-08-19T15:50:35.778Z,99632.63
2022-08-19T15:53:07.145Z,99633.53
2022-08-19T15:55:38.884Z,99631.91
2022-08-19T15:58:28.817Z,99637.16
2022-08-19T16:01:15.967Z,99632.97
2022-08-19T16:04:01.649Z,99637.41
2022-08-19T16:06:31.333Z,99630.16
2022-08-19T16:09:01.827Z,99634.78
2022-08-19T16:11:38.960Z,99635.59
2022-08-19T16:14:09.160Z,99640.78
2022-08-19T16:16:38.576Z,99626.63
2022-08-19T16:19:10.323Z,99630.44
2022-08-19T16:21:41.584Z,99630.13
2022-08-19T16:24:12.054Z,99629.09
2022-08-19T16:26:42.807Z,99632.28
2022-08-19T16:29:12.243Z,99635.72
2022-08-19T16:31:43.324Z,99630.06
2022-08-19T16:34:12.063Z,99635.41
2022-08-19T16:36:41.672Z,99637.81
2022-08-19T16:39:11.371Z,99639.88
2022-08-19T16:41:43.813Z,99642.47
2022-08-19T16:44:14.315Z,99647.19
2022-08-19T16:46:42.545Z,99651.88
2022-08-19T16:49:11.991Z,99654.50
2022-08-19T16:51:40.175Z,99660.38
2022-08-19T16:54:08.441Z,99661.34
2022-08-19T16:56:36.775Z,99662.25
2022-08-19T16:59:06.602Z,99659.94
2022-08-19T17:01:34.329Z,99657.69
2022-08-19T17:04:02.031Z,99672.16
2022-08-19T17:06:32.045Z,99673.00
2022-08-19T17:09:01.954Z,99673.13
2022-08-19T17:11:33.034Z,99670.06
2022-08-19T17:14:01.753Z,99668.59
2022-08-19T17:16:34.147Z,99669.75
2022-08-19T17:19:04.917Z,99671.88
2022-08-19T17:21:34.355Z,99674.00
2022-08-19T17:24:04.468Z,99676.44
2022-08-19T17:26:32.438Z,99669.28
2022-08-19T17:29:01.365Z,99671.72
2022-08-19T17:31:32.328Z,99675.13
2022-08-19T17:34:00.954Z,99667.53
2022-08-19T17:36:34.469Z,99667.53
2022-08-19T17:39:04.108Z,99666.84
2022-08-19T17:41:34.044Z,99669.94
2022-08-19T17:44:04.384Z,99671.06
2022-08-19T17:46:34.036Z,99676.59
2022-08-19T17:49:01.839Z,99666.69
2022-08-19T17:51:41.955Z,99674.31
2022-08-19T17:54:11.940Z,99670.75
2022-08-19T17:56:39.694Z,99674.00
2022-08-19T17:59:11.821Z,99679.84
2022-08-19T18:01:53.827Z,99685.53
2022-08-19T18:04:24.557Z,99683.09
2022-08-19T18:06:54.423Z,99686.66
2022-08-19T18:09:25.613Z,99687.25
2022-08-19T18:11:55.391Z,99699.59
2022-08-19T18:14:32.146Z,99692.06
2022-08-19T18:17:06.055Z,99701.78
2022-08-19T18:19:41.314Z,99704.19
2022-08-19T18:22:11.686Z,99703.53
2022-08-19T18:24:41.234Z,99703.41
2022-08-19T18:27:11.311Z,99710.97
2022-08-19T18:29:40.145Z,99705.63
2022-08-19T18:32:13.164Z,99709.63
2022-08-19T18:34:41.836Z,99718.31
2022-08-19T18:37:09.762Z,99727.78
2022-08-19T18:39:55.612Z,99731.53
2022-08-19T18:42:41.338Z,99736.69
2022-08-19T18:45:27.680Z,99737.50
2022-08-19T18:48:18.486Z,99735.81
2022-08-19T18:50:54.928Z,99746.06
2022-08-19T18:53:23.254Z,99753.81
2022-08-19T18:55:53.884Z,99749.53
2022-08-19T18:58:26.095Z,99754.56
2022-08-19T19:00:56.732Z,99758.94
2022-08-19T19:03:26.640Z,99761.41
2022-08-19T19:05:54.636Z,99766.09
2022-08-19T19:08:26.875Z,99764.38
2022-08-19T19:10:56.684Z,99771.69
2022-08-19T19:13:24.408Z,99774.13
2022-08-19T19:15:52.119Z,99777.44
2022-08-19T19:18:20.458Z,99783.59
2022-08-19T19:20:49.552Z,99790.75
2022-08-19T19:23:18.228Z,99792.47
2022-08-19T19:25:50.932Z,99791.66
2022-08-19T19:28:25.318Z,99801.22
2022-08-19T19:30:54.145Z,99810.09
2022-08-19T19:33:21.814Z,99807.94
2022-08-19T19:35:50.891Z,99816.41
2022-08-19T19:38:18.580Z,99817.50
2022-08-19T19:40:46.497Z,99813.84
2022-08-19T19:43:18.349Z,99812.53
2022-08-19T19:45:47.545Z,99819.31
2022-08-19T19:48:15.547Z,99819.31
2022-08-19T19:50:43.990Z,99832.75
2022-08-19T19:53:15.040Z,99829.47
2022-08-19T19:55:43.494Z,99833.41
2022-08-19T19:58:11.251Z,99835.41
2022-08-19T20:00:39.342Z,99827.63
2022-08-19T20:03:07.221Z,99840.13
2022-08-19T20:05:34.904Z,99843.75
2022-08-19T20:08:20.008Z,99845.41
2022-08-19T20:10:49.052Z,99854.44
2022-08-19T20:13:16.706Z,99850.38
2022-08-19T20:15:44.575Z,99862.78
2022-08-19T20:18:14.304Z,99856.78
2022-08-19T20:20:42.977Z,99861.31
2022-08-19T20:23:10.729Z,99856.47
2022-08-19T20:25:39.857Z,99861.38
2022-08-19T20:28:09.179Z,99863.53
2022-08-19T20:30:37.787Z,99864.78
2022-08-19T20:33:10.491Z,99871.16
2022-08-19T20:35:39.019Z,99877.47
2022-08-19T20:38:08.670Z,99870.81
2022-08-19T20:40:37.772Z,99872.69
2022-08-19T20:43:10.186Z,99879.78
2022-08-19T20:45:38.004Z,99879.88
2022-08-19T20:48:07.839Z,99876.97
2022-08-19T20:50:37.646Z,99877.28
2022-08-19T20:53:10.978Z,99879.75
2022-08-19T20:55:38.585Z,99883.53
2022-08-19T20:58:06.406Z,99884.16
2022-08-19T21:00:35.439Z,99876.47
2022-08-19T21:03:03.594Z,99876.53
2022-08-19T21:05:31.148Z,99872.78
2022-08-19T21:07:59.164Z,99892.56
2022-08-19T21:10:27.506Z,99882.47
2022-08-19T21:12:55.344Z,99886.09
2022-08-19T21:15:24.549Z,99893.88
2022-08-19T21:17:53.615Z,99891.22
2022-08-19T21:20:21.642Z,99893.47
2022-08-19T21:22:49.308Z,99899.53
2022-08-19T21:25:17.555Z,99897.31
2022-08-19T21:27:45.131Z,99899.00
2022-08-19T21:30:14.425Z,99898.13
2022-08-19T21:32:42.004Z,99894.06
2022-08-19T21:35:11.113Z,99891.31
2022-08-19T21:37:38.997Z,99889.94
2022-08-19T21:40:08.224Z,99890.72
2022-08-19T21:42:37.681Z,99890.31
2022-08-19T21:45:06.360Z,99897.34
2022-08-19T21:47:34.009Z,99907.78
2022-08-19T21:50:01.717Z,99901.25
2022-08-19T21:52:30.973Z,99902.41
2022-08-19T21:54:58.995Z,99903.50
2022-08-19T21:57:28.427Z,99904.66
2022-08-19T21:59:56.160Z,99908.50
2022-08-19T22:02:23.869Z,99904.16
2022-08-19T22:04:52.969Z,99910.16
2022-08-19T22:07:21.851Z,99909.88
2022-08-19T22:09:52.620Z,99902.78
2022-08-19T22:12:23.327Z,99899.78
2022-08-19T22:14:52.015Z,99901.94
2022-08-19T22:17:20.337Z,99901.44
2022-08-19T22:19:48.173Z,99897.28
2022-08-19T22:22:21.599Z,99904.22
2022-08-19T22:24:50.966Z,99910.25
2022-08-19T22:27:19.326Z,99904.28
2022-08-19T22:29:47.302Z,99914.09
2022-08-19T22:32:28.225Z,99912.47
2022-08-19T22:34:59.637Z,99914.19
2022-08-19T22:37:28.852Z,99920.47
2022-08-19T22:39:58.053Z,99918.59
2022-08-19T22:42:31.876Z,99923.75
2022-08-19T22:45:01.619Z,99923.50
2022-08-19T22:47:32.265Z,99928.69
2022-08-19T22:50:08.318Z,99931.38
2022-08-19T22:52:47.894Z,99934.16
2022-08-19T22:55:23.591Z,99930.59
2022-08-19T22:57:51.176Z,99926.00
2022-08-19T23:00:19.737Z,99927.28
2022-08-19T23:02:52.380Z,99925.13
2022-08-19T23:05:22.863Z,99924.31
2022-08-19T23:07:52.186Z,99921.88
2022-08-19T23:10:27.572Z,99920.53
2022-08-19T23:12:58.127Z,99920.25
2022-08-19T23:15:28.862Z,99924.66
2022-08-19T23:17:58.607Z,99915.34
2022-08-19T23:20:28.481Z,99919.47
2022-08-19T23:22:57.264Z,99920.34
2022-08-19T23:25:30.276Z,99922.84
2022-08-19T23:28:26.887Z,99922.31
2022-08-19T23:30:55.219Z,99921.19
2022-08-19T23:33:26.494Z,99929.38
2022-08-19T23:36:18.477Z,99925.50
2022-08-19T23:38:48.764Z,99923.00
2022-08-19T23:41:20.230Z,99927.13
2022-08-19T23:43:48.119Z,99934.22
2022-08-19T23:46:27.536Z,99926.13
2022-08-19T23:48:56.335Z,99929.16
2022-08-19T23:51:26.611Z,99938.50
2022-08-19T23:53:54.573Z,99940.09
2022-08-19T23:56:23.689Z,99943.97
2022-08-19T23:58:51.461Z,99945.09
